createdAt,value
2019-05-19T00:26:31.358Z,2.37
2019-05-19T00:29:02.544Z,2.85
2019-05-19T00:31:35.838Z,1.92
2019-05-19T00:34:07.220Z,2.33
2019-05-19T00:36:42.703Z,2.30
2019-05-19T00:39:13.779Z,1.75
2019-05-19T00:41:44.983Z,2.12
2019-05-19T00:44:16.073Z,2.17
2019-05-19T00:46:49.470Z,2.27
2019-05-19T00:49:21.449Z,2.42
2019-05-19T00:51:52.543Z,1.83
2019-05-19T00:54:23.605Z,2.22
2019-05-19T00:56:55.385Z,1.82
2019-05-19T00:59:27.618Z,1.92
2019-05-19T01:01:59.809Z,1.70
2019-05-19T01:04:31.004Z,2.40
2019-05-19T01:07:04.156Z,2.10
2019-05-19T01:09:35.287Z,2.40
2019-05-19T01:12:06.370Z,3.00
2019-05-19T01:14:37.798Z,2.60
2019-05-19T01:17:08.910Z,3.08
2019-05-19T01:19:40.012Z,2.15
2019-05-19T01:22:11.544Z,2.10
2019-05-19T01:24:47.736Z,2.22
2019-05-19T01:27:18.845Z,2.22
2019-05-19T01:29:50.398Z,2.30
2019-05-19T01:32:21.501Z,2.37
2019-05-19T01:34:52.776Z,2.22
2019-05-19T01:37:23.950Z,2.27
2019-05-19T01:39:55.064Z,2.15
2019-05-19T01:42:26.190Z,2.05
2019-05-19T01:44:59.002Z,2.47
2019-05-19T01:47:34.571Z,2.27
2019-05-19T01:50:17.586Z,2.00
2019-05-19T01:52:40.672Z,2.13
2019-05-19T01:55:13.169Z,2.30
2019-05-19T01:57:51.083Z,2.30
2019-05-19T02:00:23.799Z,2.20
2019-05-19T02:02:55.033Z,2.50
2019-05-19T02:05:26.639Z,2.00
2019-05-19T02:08:02.255Z,2.27
2019-05-19T02:10:33.750Z,2.15
2019-05-19T02:13:05.344Z,2.12
2019-05-19T02:15:37.926Z,2.15
2019-05-19T02:18:09.395Z,2.00
2019-05-19T02:20:40.999Z,2.17
2019-05-19T02:23:12.313Z,1.80
2019-05-19T02:25:43.503Z,2.12
2019-05-19T02:28:14.787Z,1.85
2019-05-19T02:30:47.766Z,2.10
2019-05-19T02:33:18.867Z,1.80
2019-05-19T02:35:50.097Z,1.92
2019-05-19T02:38:21.743Z,1.70
2019-05-19T02:40:56.225Z,2.20
2019-05-19T02:43:27.795Z,2.00
2019-05-19T02:46:00.729Z,2.10
2019-05-19T02:48:32.927Z,2.05
2019-05-19T02:51:05.414Z,2.05
2019-05-19T02:53:37.050Z,1.97
2019-05-19T02:56:11.466Z,1.95
2019-05-19T02:58:42.885Z,1.80
2019-05-19T03:01:14.370Z,2.08
2019-05-19T03:03:49.874Z,1.63
2019-05-19T03:06:28.450Z,1.95
2019-05-19T03:08:59.595Z,2.20
2019-05-19T03:11:30.921Z,2.15
2019-05-19T03:14:06.387Z,1.75
2019-05-19T03:16:38.269Z,1.70
2019-05-19T03:19:09.712Z,1.85
2019-05-19T03:21:40.863Z,2.08
2019-05-19T03:24:12.212Z,1.80
2019-05-19T03:26:43.314Z,1.92
2019-05-19T03:29:16.182Z,2.00
2019-05-19T03:31:56.822Z,1.90
2019-05-19T03:34:28.155Z,2.00
2019-05-19T03:36:59.409Z,1.87
2019-05-19T03:39:30.714Z,2.23
2019-05-19T03:42:02.063Z,1.72
2019-05-19T03:44:33.610Z,2.00
2019-05-19T03:47:04.669Z,1.80
2019-05-19T03:49:39.860Z,2.00
2019-05-19T03:52:11.034Z,1.82
2019-05-19T03:54:44.041Z,1.80
2019-05-19T03:57:18.398Z,2.08
2019-05-19T03:59:50.579Z,1.90
2019-05-19T04:02:21.865Z,1.98
2019-05-19T04:04:53.426Z,1.70
2019-05-19T04:07:24.901Z,2.00
2019-05-19T04:09:56.212Z,1.65
2019-05-19T04:12:27.538Z,1.85
2019-05-19T04:15:02.738Z,1.90
2019-05-19T04:17:33.940Z,2.27
2019-05-19T04:20:06.334Z,1.87
2019-05-19T04:22:37.944Z,2.00
2019-05-19T04:25:09.362Z,2.08
2019-05-19T04:27:40.555Z,2.13
2019-05-19T04:30:12.874Z,2.10
2019-05-19T04:32:46.640Z,1.87
2019-05-19T04:35:19.368Z,1.70
2019-05-19T04:37:50.897Z,1.97
2019-05-19T04:40:22.279Z,2.27
2019-05-19T04:42:55.780Z,2.00
2019-05-19T04:45:28.408Z,1.85
2019-05-19T04:48:00.110Z,2.22
2019-05-19T04:50:31.209Z,1.85
2019-05-19T04:53:04.473Z,1.90
2019-05-19T04:55:35.563Z,2.20
2019-05-19T04:58:06.749Z,2.20
2019-05-19T05:00:37.939Z,1.70
2019-05-19T05:03:09.040Z,2.17
2019-05-19T05:05:40.160Z,1.90
2019-05-19T05:08:28.566Z,1.75
2019-05-19T05:10:50.257Z,2.20
2019-05-19T05:13:22.660Z,2.00
2019-05-19T05:15:54.031Z,1.87
2019-05-19T05:18:25.151Z,1.82
2019-05-19T05:21:00.570Z,1.90
2019-05-19T05:23:31.759Z,2.00
2019-05-19T05:26:04.911Z,2.08
2019-05-19T05:28:36.026Z,2.00
2019-05-19T05:31:07.337Z,2.20
2019-05-19T05:33:38.432Z,1.80
2019-05-19T05:36:09.538Z,1.67
2019-05-19T05:38:40.663Z,1.95
2019-05-19T05:41:11.847Z,2.15
2019-05-19T05:43:42.954Z,1.67
2019-05-19T05:46:18.150Z,2.02
2019-05-19T05:48:49.289Z,1.50
2019-05-19T05:51:20.431Z,2.33
2019-05-19T05:53:53.825Z,1.90
2019-05-19T05:56:27.086Z,1.80
2019-05-19T05:58:58.145Z,1.50
2019-05-19T06:01:29.222Z,1.60
2019-05-19T06:04:00.331Z,1.77
2019-05-19T06:06:31.504Z,1.62
2019-05-19T06:09:04.256Z,1.55
2019-05-19T06:11:35.319Z,1.40
2019-05-19T06:14:06.452Z,1.87
2019-05-19T06:16:37.559Z,1.82
2019-05-19T06:49:13.635Z,1.80
2019-05-19T06:51:44.738Z,1.92
2019-05-19T06:54:15.998Z,1.70
2019-05-19T06:56:47.301Z,1.75
2019-05-19T06:59:18.452Z,2.02
2019-05-19T07:01:49.658Z,2.02
2019-05-19T07:04:20.706Z,1.50
2019-05-19T07:06:52.035Z,1.87
2019-05-19T07:09:23.165Z,2.12
2019-05-19T07:11:54.255Z,1.80
2019-05-19T07:14:25.349Z,1.70
2019-05-19T07:16:56.494Z,2.10
2019-05-19T07:19:27.561Z,1.40
2019-05-19T07:21:58.781Z,1.27
2019-05-19T07:24:29.977Z,1.50
2019-05-19T07:27:01.246Z,1.42
2019-05-19T07:29:32.441Z,1.35
2019-05-19T07:39:56.110Z,1.32
2019-05-19T07:42:29.286Z,2.17
2019-05-19T07:45:00.426Z,1.50
2019-05-19T08:00:05.259Z,2.10
2019-05-19T08:05:08.351Z,1.57
2019-05-19T08:10:09.905Z,1.98
2019-05-19T08:22:43.230Z,1.75
2019-05-19T08:25:14.614Z,1.50
2019-05-19T08:27:47.150Z,1.80
2019-05-19T08:30:18.628Z,2.02
2019-05-19T08:32:49.925Z,1.98
2019-05-19T08:35:21.083Z,1.72
2019-05-19T08:37:52.199Z,1.45
2019-05-19T11:06:09.340Z,1.30
2019-05-19T11:08:40.472Z,1.27
2019-05-19T11:11:11.755Z,1.05
2019-05-19T11:13:42.956Z,1.12
2019-05-19T11:31:16.230Z,1.62
2019-05-19T11:33:47.372Z,1.15
2019-05-19T11:36:18.443Z,1.20
2019-05-19T12:01:22.971Z,1.62
2019-05-19T12:03:55.493Z,1.57
2019-05-19T12:06:38.899Z,1.35
2019-05-19T12:08:59.689Z,1.55
2019-05-19T12:11:30.890Z,1.17
2019-05-19T12:14:02.029Z,1.42
2019-05-19T12:16:34.080Z,1.12
2019-05-19T12:19:05.477Z,1.52
2019-05-19T12:21:36.736Z,1.22
2019-05-19T12:24:39.051Z,1.37
2019-05-19T12:27:35.823Z,0.90
2019-05-19T12:30:19.039Z,1.10
2019-05-19T12:32:50.160Z,1.25
2019-05-19T12:35:21.407Z,1.02
2019-05-19T12:37:52.515Z,1.20
2019-05-19T12:40:23.726Z,1.47
2019-05-19T12:42:55.003Z,1.67
2019-05-19T12:45:27.980Z,1.27
2019-05-19T12:48:04.973Z,2.40
2019-05-19T12:50:36.946Z,1.95
2019-05-19T12:53:08.105Z,3.52
2019-05-19T12:55:39.251Z,1.60
2019-05-19T12:58:10.364Z,1.15
2019-05-19T13:00:41.751Z,1.42
2019-05-19T13:03:21.139Z,1.20
2019-05-19T13:05:53.211Z,1.30
2019-05-19T13:08:24.550Z,1.12
2019-05-19T13:10:55.715Z,1.32
2019-05-19T13:13:26.855Z,1.37
2019-05-19T13:15:57.961Z,1.20
2019-05-19T13:18:29.130Z,0.90
2019-05-19T13:21:00.251Z,1.40
2019-05-19T13:43:34.474Z,1.20
2019-05-19T13:46:05.723Z,1.47
2019-05-19T13:48:36.864Z,1.37
2019-05-19T13:51:08.615Z,1.20
2019-05-19T13:53:39.858Z,1.42
2019-05-19T13:56:11.188Z,1.25
2019-05-19T13:58:42.290Z,1.25
2019-05-19T14:01:27.524Z,1.53
2019-05-19T14:03:46.190Z,1.40
2019-05-19T14:06:17.258Z,1.30
2019-05-19T14:08:48.401Z,1.20
2019-05-19T14:11:20.157Z,1.60
2019-05-19T14:13:51.346Z,1.50
2019-05-19T14:16:22.576Z,1.30
2019-05-19T14:18:53.728Z,1.20
2019-05-19T14:21:28.008Z,1.20
2019-05-19T14:23:59.112Z,1.55
2019-05-19T14:26:30.332Z,1.37
2019-05-19T14:29:02.213Z,1.80
2019-05-19T14:31:33.432Z,2.00
2019-05-19T14:34:04.624Z,2.22
2019-05-19T14:36:35.795Z,1.47
2019-05-19T14:39:07.070Z,1.50
2019-05-19T14:41:39.815Z,1.40
2019-05-19T14:44:11.085Z,1.20
2019-05-19T14:46:42.171Z,1.80
2019-05-19T14:49:14.324Z,1.42
2019-05-19T14:51:45.569Z,1.50
2019-05-19T14:54:16.815Z,1.50
2019-05-19T14:56:47.897Z,1.50
2019-05-19T14:59:19.042Z,1.77
2019-05-19T15:01:50.206Z,1.55
2019-05-19T15:04:21.444Z,1.50
2019-05-19T15:06:52.668Z,1.52
2019-05-19T15:09:23.919Z,1.30
2019-05-19T15:11:55.044Z,1.20
2019-05-19T15:14:26.323Z,1.22
2019-05-19T15:16:57.477Z,1.42
2019-05-19T15:19:28.846Z,1.20
2019-05-19T15:22:00.039Z,1.50
2019-05-19T15:24:31.165Z,1.60
2019-05-19T15:27:04.737Z,1.60
2019-05-19T15:29:35.947Z,1.53
2019-05-19T15:32:07.085Z,1.30
2019-05-19T15:34:38.974Z,1.50
2019-05-19T15:37:10.118Z,1.50
2019-05-19T15:39:41.256Z,1.40
2019-05-19T15:42:12.499Z,1.40
2019-05-19T15:44:43.629Z,1.17
2019-05-19T15:47:14.844Z,1.30
2019-05-19T15:49:47.646Z,1.55
2019-05-19T15:52:18.816Z,1.75
2019-05-19T15:54:52.522Z,1.90
2019-05-19T15:57:23.857Z,1.40
2019-05-19T15:59:55.051Z,1.40
2019-05-19T16:02:26.183Z,1.22
2019-05-19T16:04:57.367Z,1.60
2019-05-19T16:07:28.480Z,1.47
2019-05-19T16:09:59.628Z,1.73
2019-05-19T16:12:30.755Z,1.40
2019-05-19T16:15:02.158Z,1.50
2019-05-19T16:17:33.663Z,1.62
2019-05-19T16:20:09.081Z,1.60
2019-05-19T16:22:40.219Z,1.85
2019-05-19T16:25:11.537Z,1.67
2019-05-19T16:27:42.782Z,2.20
2019-05-19T16:30:14.180Z,2.08
2019-05-19T16:32:45.825Z,2.30
2019-05-19T16:35:18.717Z,2.87
2019-05-19T16:37:49.891Z,3.27
2019-05-19T16:40:21.185Z,4.60
2019-05-19T16:42:52.698Z,4.78
2019-05-19T16:45:24.986Z,5.03
2019-05-19T16:47:56.290Z,5.07
2019-05-19T16:50:27.489Z,4.50
2019-05-19T16:52:58.602Z,4.03
2019-05-19T16:55:31.342Z,3.40
2019-05-19T16:58:19.531Z,3.00
2019-05-19T17:00:37.252Z,2.80
2019-05-19T17:03:08.500Z,2.50
2019-05-19T17:05:39.715Z,2.40
2019-05-19T17:08:11.017Z,2.15
2019-05-19T17:10:45.998Z,1.80
2019-05-19T17:13:17.128Z,1.98
2019-05-19T17:15:48.216Z,1.90
2019-05-19T17:18:19.332Z,2.00
2019-05-19T17:20:50.510Z,1.67
2019-05-19T17:23:21.719Z,1.90
2019-05-19T17:25:52.917Z,1.70
2019-05-19T17:28:24.027Z,1.72
2019-05-19T17:30:55.620Z,1.90
2019-05-19T17:33:26.738Z,1.90
2019-05-19T17:35:57.936Z,1.80
2019-05-19T17:38:29.091Z,1.62
2019-05-19T17:41:00.783Z,1.60
2019-05-19T17:43:31.943Z,6.05
2019-05-19T17:46:04.235Z,1.70
2019-05-19T17:48:35.407Z,1.90
2019-05-19T17:51:06.713Z,1.82
2019-05-19T17:53:37.848Z,2.05
2019-05-19T17:56:10.625Z,2.00
2019-05-19T17:58:41.918Z,1.67
2019-05-19T18:01:13.096Z,1.90
2019-05-19T18:03:45.127Z,2.02
2019-05-19T18:06:16.337Z,1.75
2019-05-19T18:08:47.503Z,2.08
2019-05-19T18:11:18.738Z,2.20
2019-05-19T18:13:49.900Z,1.73
2019-05-19T18:16:29.962Z,1.70
2019-05-19T18:19:04.738Z,1.87
2019-05-19T18:21:38.589Z,1.57
2019-05-19T18:24:09.984Z,1.70
2019-05-19T18:26:41.213Z,1.90
2019-05-19T18:29:12.266Z,2.00
2019-05-19T18:31:43.405Z,1.60
2019-05-19T18:34:14.511Z,2.08
2019-05-19T18:36:45.756Z,1.70
2019-05-19T18:39:16.891Z,1.90
2019-05-19T18:41:48.060Z,1.95
2019-05-19T18:44:19.163Z,1.80
2019-05-19T18:46:50.427Z,1.80
2019-05-19T18:49:22.877Z,2.10
2019-05-19T18:51:55.396Z,2.00
2019-05-19T18:54:38.134Z,1.90
2019-05-19T18:57:09.290Z,2.35
2019-05-19T18:59:47.217Z,2.67
2019-05-19T19:02:13.240Z,2.15
2019-05-19T19:04:46.601Z,2.30
2019-05-19T19:07:17.806Z,2.30
2019-05-19T19:09:48.902Z,2.25
2019-05-19T19:12:20.050Z,2.65
2019-05-19T19:14:51.172Z,2.37
2019-05-19T19:17:22.331Z,2.40
2019-05-19T19:19:53.503Z,2.52
2019-05-19T19:22:25.180Z,3.27
2019-05-19T19:24:56.255Z,2.75
2019-05-19T19:27:27.648Z,2.80
2019-05-19T19:30:03.323Z,2.60
2019-05-19T19:32:32.085Z,2.75
2019-05-19T19:35:06.187Z,2.27
2019-05-19T19:37:37.395Z,2.80
2019-05-19T19:40:10.275Z,2.92
2019-05-19T19:42:41.440Z,2.27
2019-05-19T19:45:12.539Z,2.67
2019-05-19T19:47:43.677Z,2.60
2019-05-19T19:50:14.780Z,2.25
2019-05-19T19:52:48.346Z,3.08
2019-05-19T20:03:07.341Z,2.20
2019-05-19T20:05:38.588Z,2.25
2019-05-19T20:08:09.730Z,2.42
2019-05-19T20:10:40.825Z,2.15
